Terminal Aerodrome Forecast
Issued by NWS

Home | Current Version | Previous Version | Text Only | Print | Product List | Glossary On
Versions: 1 2 3 4 5 6 7 8 9 10 11 12 13 14 15 16 17 18 19 20 21 22 23 24 25 26 27 28 29 30 31 32 33 34 35 36 37 38 39 40 41 42 43 44 45 46 47 48 49 50
267
FTUS43 KMKX 251459 AAA
TAFUES
TAF AMD
KUES 251459Z 2515/2612 10006KT P6SM BKN250
     FM251900 13010G15KT P6SM VCTS BKN100CB BKN200
     FM252100 13010G15KT P6SM VCTS SCT050 BKN090CB
      TEMPO 2522/2602 4SM TSRA OVC040CB
     FM260200 16005KT P6SM OVC060
     FM261000 20004KT 3SM BR BKN015=

USA.gov is the U.S. government's official web portal to all federal, state and local government web resources and services.